createdAt,value
2023-01-13T00:00:38.630Z,73.15
2023-01-13T00:03:21.436Z,73.21
2023-01-13T00:05:49.817Z,73.23
2023-01-13T00:08:18.603Z,73.27
2023-01-13T00:10:50.917Z,73.27
2023-01-13T00:13:26.798Z,73.28
2023-01-13T00:15:58.282Z,73.30
2023-01-13T00:18:27.689Z,73.31
2023-01-13T00:21:05.274Z,73.33
2023-01-13T00:23:35.311Z,73.31
2023-01-13T00:26:07.431Z,73.28
2023-01-13T00:28:35.964Z,73.29
2023-01-13T00:31:08.853Z,73.28
2023-01-13T00:33:38.115Z,73.30
2023-01-13T00:36:08.153Z,73.26
2023-01-13T00:38:38.047Z,73.25
2023-01-13T00:41:12.167Z,73.31
2023-01-13T00:43:41.064Z,73.34
2023-01-13T00:46:11.857Z,73.36
2023-01-13T00:48:40.795Z,73.40
2023-01-13T00:51:15.188Z,73.51
2023-01-13T00:53:46.152Z,73.56
2023-01-13T00:56:38.670Z,73.57
2023-01-13T00:59:12.226Z,73.63
2023-01-13T01:01:41.470Z,73.60
2023-01-13T01:04:10.175Z,73.47
2023-01-13T01:06:38.653Z,73.46
2023-01-13T01:09:07.280Z,73.41
2023-01-13T01:11:35.714Z,73.31
2023-01-13T01:14:05.128Z,73.28
2023-01-13T01:16:34.672Z,73.17
2023-01-13T01:19:04.121Z,73.05
2023-01-13T01:21:33.139Z,73.01
2023-01-13T01:24:03.663Z,72.98
2023-01-13T01:26:32.757Z,73.00
2023-01-13T01:29:02.608Z,72.93
2023-01-13T01:31:33.830Z,72.95
2023-01-13T01:34:02.939Z,72.92
2023-01-13T01:36:31.447Z,72.92
2023-01-13T01:39:00.481Z,72.98
2023-01-13T01:41:32.348Z,73.01
2023-01-13T01:44:04.730Z,73.04
2023-01-13T01:46:37.139Z,73.06
2023-01-13T01:49:32.747Z,73.02
2023-01-13T01:52:07.336Z,73.02
2023-01-13T01:55:02.339Z,72.96
2023-01-13T01:57:54.251Z,73.06
2023-01-13T02:00:23.422Z,73.11
2023-01-13T02:02:52.678Z,73.12
2023-01-13T02:05:21.650Z,73.13
2023-01-13T02:07:54.038Z,73.18
2023-01-13T02:10:26.367Z,73.35
2023-01-13T02:12:58.531Z,73.50
2023-01-13T02:15:57.788Z,73.55
2023-01-13T02:18:32.511Z,73.57
2023-01-13T02:21:24.021Z,73.54
2023-01-13T02:24:32.946Z,73.54
2023-01-13T02:27:07.579Z,73.56
2023-01-13T02:30:09.854Z,73.59
2023-01-13T02:32:51.232Z,73.62
2023-01-13T02:35:29.826Z,73.60
2023-01-13T02:38:00.382Z,73.53
2023-01-13T02:40:40.937Z,73.48
2023-01-13T02:43:38.215Z,73.45
2023-01-13T02:46:28.601Z,73.44
2023-01-13T02:49:00.353Z,73.42
2023-01-13T02:51:31.401Z,73.25
2023-01-13T02:54:23.936Z,73.25
2023-01-13T02:56:55.889Z,73.56
2023-01-13T02:59:27.965Z,74.02
2023-01-13T03:01:58.085Z,74.52
2023-01-13T03:04:54.219Z,75.00
2023-01-13T03:07:49.420Z,75.28
2023-01-13T03:10:47.879Z,75.57
2023-01-13T03:13:25.916Z,75.74
2023-01-13T03:16:17.000Z,75.78
2023-01-13T03:18:56.262Z,75.84
2023-01-13T03:21:33.042Z,75.84
2023-01-13T03:24:06.171Z,75.85
2023-01-13T03:26:44.441Z,75.83
2023-01-13T03:29:25.103Z,75.77
2023-01-13T03:32:05.153Z,75.54
2023-01-13T03:34:39.402Z,75.34
2023-01-13T03:37:09.257Z,75.18
2023-01-13T03:39:42.771Z,75.10
2023-01-13T03:42:18.532Z,75.01
2023-01-13T03:44:55.109Z,74.88
2023-01-13T03:47:29.017Z,74.73
2023-01-13T03:50:03.750Z,74.61
2023-01-13T03:52:45.127Z,74.47
2023-01-13T03:55:18.766Z,74.32
2023-01-13T03:58:14.412Z,74.18
2023-01-13T04:00:54.540Z,74.06
2023-01-13T04:03:48.307Z,74.00
2023-01-13T04:06:24.030Z,74.00
2023-01-13T04:08:59.062Z,73.97
2023-01-13T04:11:40.332Z,73.93
2023-01-13T04:14:11.714Z,73.89
2023-01-13T04:16:41.757Z,73.89
2023-01-13T04:19:09.976Z,73.74
2023-01-13T04:21:38.365Z,73.70
2023-01-13T04:24:08.736Z,73.59
2023-01-13T04:26:36.963Z,73.48
2023-01-13T04:29:05.249Z,73.36
2023-01-13T04:31:33.936Z,73.20
2023-01-13T04:34:03.326Z,73.17
2023-01-13T04:36:31.707Z,73.09
2023-01-13T04:38:59.979Z,73.07
2023-01-13T04:41:28.645Z,72.96
2023-01-13T04:43:56.762Z,72.92
2023-01-13T04:46:25.175Z,72.80
2023-01-13T04:48:53.549Z,72.71
2023-01-13T04:51:21.735Z,72.66
2023-01-13T04:53:52.513Z,72.64
2023-01-13T04:56:20.789Z,72.70
2023-01-13T04:58:48.930Z,72.74
2023-01-13T05:01:17.353Z,72.75
2023-01-13T05:03:45.708Z,72.73
2023-01-13T05:06:14.185Z,72.82
2023-01-13T05:08:42.465Z,72.90
2023-01-13T05:11:29.573Z,72.96
2023-01-13T05:14:16.815Z,72.99
2023-01-13T05:17:00.547Z,73.05
2023-01-13T05:19:34.718Z,73.15
2023-01-13T05:22:23.006Z,73.20
2023-01-13T05:25:10.328Z,73.27
2023-01-13T05:27:38.652Z,73.30
2023-01-13T05:30:08.530Z,73.27
2023-01-13T05:32:37.828Z,73.24
2023-01-13T05:35:06.920Z,73.17
2023-01-13T05:37:35.605Z,73.03
2023-01-13T05:40:23.959Z,72.95
2023-01-13T05:43:23.121Z,72.90
2023-01-13T05:45:57.481Z,72.94
2023-01-13T05:48:32.008Z,72.84
2023-01-13T05:51:02.385Z,72.76
2023-01-13T05:53:31.320Z,72.72
2023-01-13T05:56:00.609Z,72.66
2023-01-13T05:58:29.268Z,72.57
2023-01-13T06:01:05.169Z,72.40
2023-01-13T06:03:34.916Z,72.35
2023-01-13T06:06:04.614Z,72.34
2023-01-13T06:08:32.973Z,72.36
2023-01-13T06:11:01.434Z,72.49
2023-01-13T06:13:29.970Z,72.59
2023-01-13T06:15:59.607Z,72.51
2023-01-13T06:18:28.704Z,72.36
2023-01-13T06:20:57.447Z,72.31
2023-01-13T06:23:26.695Z,72.23
2023-01-13T06:25:58.046Z,72.16
2023-01-13T06:28:26.592Z,72.16
2023-01-13T06:30:59.117Z,72.15
2023-01-13T06:33:33.805Z,72.14
2023-01-13T06:36:06.295Z,72.16
2023-01-13T06:38:39.039Z,72.18
2023-01-13T06:41:09.470Z,72.09
2023-01-13T06:43:39.694Z,72.15
2023-01-13T06:46:08.315Z,72.21
2023-01-13T06:48:36.591Z,72.26
2023-01-13T06:51:05.477Z,72.24
2023-01-13T06:53:33.975Z,72.24
2023-01-13T06:56:02.321Z,72.26
2023-01-13T06:58:30.608Z,72.29
2023-01-13T07:01:02.569Z,72.32
2023-01-13T07:03:31.336Z,72.37
2023-01-13T07:06:00.675Z,72.47
2023-01-13T07:08:29.154Z,72.55
2023-01-13T07:10:57.738Z,72.60
2023-01-13T07:13:44.537Z,72.55
2023-01-13T07:16:13.185Z,72.58
2023-01-13T07:18:41.719Z,72.60
2023-01-13T07:21:13.414Z,72.59
2023-01-13T07:23:42.479Z,72.49
2023-01-13T07:26:11.517Z,72.54
2023-01-13T07:28:41.561Z,72.56
2023-01-13T07:31:16.717Z,72.65
2023-01-13T07:33:46.001Z,72.66
2023-01-13T07:36:15.474Z,72.66
2023-01-13T07:38:44.866Z,72.63
2023-01-13T07:41:33.234Z,72.56
2023-01-13T07:44:06.320Z,72.57
2023-01-13T07:46:34.834Z,72.52
2023-01-13T07:49:04.443Z,72.54
2023-01-13T07:51:36.407Z,72.56
2023-01-13T07:54:06.647Z,72.60
2023-01-13T07:56:35.543Z,72.60
2023-01-13T07:59:04.640Z,72.69
2023-01-13T08:01:33.710Z,72.70
2023-01-13T08:04:02.928Z,72.71
2023-01-13T08:06:31.737Z,72.77
2023-01-13T08:09:01.557Z,72.72
2023-01-13T08:11:31.246Z,72.68
2023-01-13T08:14:00.848Z,72.75
2023-01-13T08:16:30.178Z,72.68
2023-01-13T08:18:59.643Z,72.67
2023-01-13T08:21:29.353Z,72.65
2023-01-13T08:23:58.957Z,72.69
2023-01-13T08:26:28.864Z,72.68
2023-01-13T08:28:58.256Z,72.58
2023-01-13T08:31:27.897Z,72.46
2023-01-13T08:33:57.329Z,72.43
2023-01-13T08:36:27.047Z,72.49
2023-01-13T08:38:55.999Z,72.48
2023-01-13T08:41:43.509Z,72.39
2023-01-13T08:44:13.430Z,72.30
2023-01-13T08:46:43.632Z,72.21
2023-01-13T08:49:15.099Z,72.17
2023-01-13T08:51:48.229Z,72.12
2023-01-13T08:54:18.131Z,72.10
2023-01-13T08:56:47.463Z,72.02
2023-01-13T08:59:18.875Z,72.07
2023-01-13T09:01:47.589Z,72.13
2023-01-13T09:04:19.895Z,72.10
2023-01-13T09:06:49.831Z,72.15
2023-01-13T09:09:18.863Z,72.17
2023-01-13T09:12:08.457Z,72.14
2023-01-13T09:14:38.805Z,72.07
2023-01-13T09:17:10.395Z,72.08
2023-01-13T09:19:39.404Z,71.86
2023-01-13T09:22:14.222Z,71.69
2023-01-13T09:24:43.231Z,71.63
2023-01-13T09:27:14.325Z,71.62
2023-01-13T09:29:43.532Z,71.60
2023-01-13T09:32:13.859Z,71.52
2023-01-13T09:35:00.881Z,71.28
2023-01-13T09:37:38.570Z,71.09
2023-01-13T09:40:13.192Z,71.12
2023-01-13T09:43:25.417Z,71.15
2023-01-13T09:46:00.220Z,70.98
2023-01-13T09:48:32.819Z,70.90
2023-01-13T09:51:19.041Z,70.63
2023-01-13T09:53:56.915Z,70.53
2023-01-13T09:56:26.237Z,70.29
2023-01-13T09:58:54.898Z,70.30
2023-01-13T10:01:32.759Z,70.27
2023-01-13T10:04:10.911Z,69.89
2023-01-13T10:06:45.056Z,69.85
2023-01-13T10:09:28.491Z,69.84
2023-01-13T10:12:19.458Z,69.98
2023-01-13T10:15:07.625Z,69.75
2023-01-13T10:17:47.241Z,69.52
2023-01-13T10:20:30.588Z,69.37
2023-01-13T10:23:06.614Z,69.16
2023-01-13T10:25:52.469Z,68.84
2023-01-13T10:28:24.465Z,68.91
2023-01-13T10:30:54.025Z,68.98
2023-01-13T10:33:29.343Z,68.98
2023-01-13T10:36:04.424Z,69.00
2023-01-13T10:38:37.998Z,68.64
2023-01-13T10:41:16.587Z,68.40
2023-01-13T10:43:57.352Z,68.30
2023-01-13T10:46:26.388Z,68.14
2023-01-13T10:49:00.412Z,68.11
2023-01-13T10:51:39.496Z,68.30
2023-01-13T10:54:14.158Z,68.42
2023-01-13T10:56:45.296Z,68.48
2023-01-13T10:59:23.518Z,68.37
2023-01-13T11:01:58.361Z,68.36
2023-01-13T11:04:43.614Z,68.35
2023-01-13T11:07:30.314Z,68.31
2023-01-13T11:10:18.231Z,68.53
2023-01-13T11:12:59.053Z,68.84
2023-01-13T11:15:47.530Z,68.73
2023-01-13T11:18:38.088Z,68.86
2023-01-13T11:21:17.899Z,68.56
2023-01-13T11:23:55.224Z,68.04
2023-01-13T11:26:47.529Z,67.94
2023-01-13T11:29:28.047Z,67.86
2023-01-13T11:32:10.094Z,68.07
2023-01-13T11:34:42.771Z,68.34
2023-01-13T11:37:27.948Z,68.50
2023-01-13T11:40:05.828Z,68.59
2023-01-13T11:42:49.683Z,68.64
2023-01-13T11:45:32.825Z,68.60
2023-01-13T11:48:02.911Z,68.60
2023-01-13T11:50:42.800Z,68.81
2023-01-13T11:53:29.989Z,68.89
2023-01-13T11:56:12.185Z,68.86
2023-01-13T11:58:50.279Z,68.76
2023-01-13T12:01:26.096Z,68.73
2023-01-13T12:04:20.429Z,68.80
2023-01-13T12:07:00.559Z,68.71
2023-01-13T12:09:56.036Z,68.65
2023-01-13T12:12:34.133Z,68.45
2023-01-13T12:15:22.822Z,68.42
2023-01-13T12:18:04.151Z,68.44
2023-01-13T12:21:00.364Z,68.42
2023-01-13T12:24:13.932Z,68.35
2023-01-13T12:26:49.664Z,68.19
2023-01-13T12:29:20.722Z,68.07
2023-01-13T12:31:50.472Z,67.92
2023-01-13T12:34:28.159Z,67.72
2023-01-13T12:37:00.107Z,67.67
2023-01-13T12:39:41.271Z,67.41
2023-01-13T12:42:40.876Z,67.25
2023-01-13T12:45:12.394Z,67.28
2023-01-13T12:47:49.402Z,67.24
2023-01-13T12:50:24.142Z,67.15
2023-01-13T12:52:54.888Z,67.02
2023-01-13T12:55:28.270Z,67.08
2023-01-13T12:57:59.737Z,67.19
2023-01-13T13:00:40.379Z,67.05
2023-01-13T13:03:13.181Z,67.00
2023-01-13T13:06:16.247Z,66.93
2023-01-13T13:09:18.342Z,66.84
2023-01-13T13:12:01.113Z,66.79
2023-01-13T13:14:41.822Z,66.82
2023-01-13T13:17:28.545Z,66.83
2023-01-13T13:19:58.135Z,66.82
2023-01-13T13:22:26.568Z,66.74
2023-01-13T13:24:54.979Z,66.81
2023-01-13T13:27:38.655Z,66.92
2023-01-13T13:30:29.142Z,67.06
2023-01-13T13:33:06.487Z,67.13
2023-01-13T13:36:00.202Z,66.95
2023-01-13T13:39:09.472Z,67.09
2023-01-13T13:42:04.230Z,67.25
2023-01-13T13:45:01.077Z,67.30
2023-01-13T13:47:39.682Z,67.34
2023-01-13T13:50:21.094Z,67.34
2023-01-13T13:52:58.647Z,67.39
2023-01-13T13:55:29.099Z,67.49
2023-01-13T13:57:57.984Z,67.60
2023-01-13T14:00:37.059Z,67.72
2023-01-13T14:03:21.570Z,67.90
2023-01-13T14:05:54.564Z,68.06
2023-01-13T14:08:24.721Z,68.14
2023-01-13T14:10:53.982Z,68.26
2023-01-13T14:13:31.263Z,68.43
2023-01-13T14:16:01.556Z,68.89
2023-01-13T14:18:49.604Z,70.39
2023-01-13T14:21:26.988Z,71.58
2023-01-13T14:24:14.971Z,72.28
2023-01-13T14:26:43.673Z,73.53
2023-01-13T14:29:18.834Z,74.40
2023-01-13T14:31:49.087Z,75.22
2023-01-13T14:34:28.792Z,75.90
2023-01-13T14:37:03.912Z,76.52
2023-01-13T14:39:42.245Z,76.81
2023-01-13T14:42:16.747Z,76.75
2023-01-13T14:44:51.983Z,76.88
2023-01-13T14:47:30.596Z,76.86
2023-01-13T14:50:06.300Z,76.72
2023-01-13T14:52:55.480Z,76.72
2023-01-13T14:55:36.734Z,76.87
2023-01-13T14:58:25.505Z,76.95
2023-01-13T15:01:35.285Z,77.05
2023-01-13T15:04:23.617Z,77.18
2023-01-13T15:06:56.666Z,77.43
2023-01-13T15:09:29.225Z,77.68
2023-01-13T15:11:59.124Z,77.70
2023-01-13T15:14:34.993Z,77.69
2023-01-13T15:17:03.833Z,77.65
2023-01-13T15:19:32.759Z,77.95
2023-01-13T15:22:01.479Z,77.88
2023-01-13T15:24:32.258Z,77.84
2023-01-13T15:27:14.336Z,78.00
2023-01-13T15:29:43.379Z,77.93
2023-01-13T15:32:19.757Z,78.01
2023-01-13T15:34:49.147Z,78.02
2023-01-13T15:37:18.045Z,78.14
2023-01-13T15:39:47.059Z,78.20
2023-01-13T15:42:34.780Z,78.44
2023-01-13T15:45:23.241Z,78.49
2023-01-13T15:47:52.103Z,78.51
2023-01-13T15:50:21.127Z,78.61
2023-01-13T15:52:51.028Z,78.71
2023-01-13T15:55:20.405Z,78.93
2023-01-13T15:57:50.969Z,78.87
2023-01-13T16:00:22.197Z,78.99
2023-01-13T16:02:52.224Z,79.31
2023-01-13T16:05:21.737Z,79.41
2023-01-13T16:07:51.163Z,79.36
2023-01-13T16:10:24.732Z,79.40
2023-01-13T16:12:56.116Z,79.49
2023-01-13T16:15:27.923Z,79.60
2023-01-13T16:18:04.377Z,79.95
2023-01-13T16:20:36.090Z,80.11
2023-01-13T16:23:05.899Z,80.09
2023-01-13T16:25:34.608Z,80.23
2023-01-13T16:28:03.597Z,80.20
2023-01-13T16:30:37.458Z,80.31
2023-01-13T16:33:06.597Z,80.42
2023-01-13T16:35:35.735Z,80.50
2023-01-13T16:38:17.987Z,80.49
2023-01-13T16:40:48.623Z,80.61
2023-01-13T16:43:18.142Z,80.54
2023-01-13T16:45:47.725Z,80.59
2023-01-13T16:48:21.062Z,80.62
2023-01-13T16:50:51.023Z,80.64
2023-01-13T16:53:20.885Z,80.74
2023-01-13T16:55:50.507Z,80.82
2023-01-13T16:58:21.933Z,80.89
2023-01-13T17:00:53.412Z,80.71
2023-01-13T17:03:22.492Z,80.75
2023-01-13T17:05:52.084Z,80.78
2023-01-13T17:08:21.994Z,80.76
2023-01-13T17:10:51.616Z,80.59
2023-01-13T17:13:21.599Z,80.46
2023-01-13T17:15:51.633Z,80.38
2023-01-13T17:18:21.163Z,80.26
2023-01-13T17:20:51.135Z,80.26
2023-01-13T17:23:21.205Z,81.17
2023-01-13T17:25:50.042Z,80.63
2023-01-13T17:28:19.294Z,80.29
2023-01-13T17:30:48.440Z,80.18
2023-01-13T17:33:18.933Z,80.22
2023-01-13T17:35:50.376Z,80.29
2023-01-13T17:38:19.851Z,80.36
2023-01-13T17:40:49.410Z,80.47
2023-01-13T17:43:18.602Z,80.56
2023-01-13T17:45:47.407Z,80.67
2023-01-13T17:48:18.015Z,80.75
2023-01-13T17:50:51.617Z,80.77
2023-01-13T17:53:21.340Z,80.83
2023-01-13T17:55:53.511Z,80.88
2023-01-13T17:58:23.125Z,80.95
2023-01-13T18:00:51.527Z,81.01
2023-01-13T18:03:20.715Z,81.02
2023-01-13T18:05:49.904Z,81.01
2023-01-13T18:08:19.700Z,81.06
2023-01-13T18:10:52.835Z,81.04
2023-01-13T18:13:21.910Z,81.11
2023-01-13T18:15:50.682Z,81.18
2023-01-13T18:18:19.718Z,81.23
2023-01-13T18:21:07.972Z,81.26
2023-01-13T18:24:15.324Z,81.29
2023-01-13T18:27:02.975Z,81.32
2023-01-13T18:29:32.503Z,81.36
2023-01-13T18:32:01.509Z,81.43
2023-01-13T18:34:31.489Z,81.43
2023-01-13T18:37:01.674Z,81.38
2023-01-13T18:39:31.171Z,81.31
2023-01-13T18:42:19.675Z,81.20
2023-01-13T18:44:49.553Z,81.14
2023-01-13T18:47:20.232Z,81.13
2023-01-13T18:49:49.799Z,81.05
2023-01-13T18:52:19.135Z,81.11
2023-01-13T18:54:48.445Z,81.13
2023-01-13T18:57:20.136Z,81.09
2023-01-13T18:59:49.851Z,81.11
2023-01-13T19:02:22.162Z,81.16
2023-01-13T19:04:52.129Z,81.22
2023-01-13T19:07:27.039Z,81.30
2023-01-13T19:09:56.505Z,81.34
2023-01-13T19:12:26.684Z,81.31
2023-01-13T19:14:56.382Z,81.41
2023-01-13T19:17:27.596Z,81.45
2023-01-13T19:20:00.019Z,81.49
2023-01-13T19:22:35.863Z,81.43
2023-01-13T19:25:05.778Z,81.39
2023-01-13T19:27:35.327Z,81.37
2023-01-13T19:30:05.560Z,81.41
2023-01-13T19:32:35.162Z,81.45
2023-01-13T19:35:05.111Z,81.49
2023-01-13T19:37:37.712Z,81.54
2023-01-13T19:40:09.868Z,81.56
2023-01-13T19:42:59.239Z,81.57
2023-01-13T19:45:30.813Z,81.53
2023-01-13T19:48:05.479Z,81.49
2023-01-13T19:50:39.903Z,81.44
2023-01-13T19:53:19.038Z,81.41
2023-01-13T19:55:49.451Z,81.37
2023-01-13T19:58:23.510Z,81.29
2023-01-13T20:00:54.151Z,81.22
2023-01-13T20:03:26.060Z,81.18
2023-01-13T20:05:56.382Z,81.19
2023-01-13T20:08:25.785Z,81.25
2023-01-13T20:11:15.271Z,81.26
2023-01-13T20:13:44.187Z,81.25
2023-01-13T20:16:13.102Z,81.22
2023-01-13T20:18:42.054Z,81.19
2023-01-13T20:21:11.472Z,81.18
2023-01-13T20:23:40.866Z,81.21
2023-01-13T20:26:10.902Z,81.24
2023-01-13T20:28:41.002Z,81.18
2023-01-13T20:31:12.185Z,81.09
2023-01-13T20:33:42.746Z,81.12
2023-01-13T20:36:27.229Z,81.18
2023-01-13T20:38:59.557Z,81.24
2023-01-13T20:41:47.376Z,81.30
2023-01-13T20:44:17.624Z,81.33
2023-01-13T20:46:47.184Z,81.28
2023-01-13T20:49:17.365Z,81.26
2023-01-13T20:51:47.993Z,81.23
2023-01-13T20:54:19.038Z,81.08
2023-01-13T20:56:48.820Z,80.76
2023-01-13T20:59:18.830Z,80.69
2023-01-13T21:01:49.655Z,80.63
2023-01-13T21:04:22.279Z,80.57
2023-01-13T21:06:53.688Z,80.40
2023-01-13T21:09:25.730Z,80.18
2023-01-13T21:12:14.503Z,79.93
2023-01-13T21:15:05.402Z,79.65
2023-01-13T21:17:54.211Z,79.47
2023-01-13T21:20:24.145Z,79.19
2023-01-13T21:22:54.160Z,78.88
2023-01-13T21:25:24.281Z,78.68
2023-01-13T21:27:59.710Z,78.49
2023-01-13T21:30:30.410Z,78.40
2023-01-13T21:33:01.536Z,78.27
2023-01-13T21:35:32.937Z,78.01
2023-01-13T21:38:03.829Z,78.03
2023-01-13T21:40:33.461Z,77.96
2023-01-13T21:43:22.510Z,77.86
2023-01-13T21:46:11.029Z,77.82
2023-01-13T21:48:40.669Z,77.63
2023-01-13T21:51:11.265Z,77.36
2023-01-13T21:53:40.987Z,77.32
2023-01-13T21:56:11.392Z,77.27
2023-01-13T21:58:41.793Z,77.11
2023-01-13T22:01:14.088Z,76.96
2023-01-13T22:04:05.304Z,76.84
2023-01-13T22:06:35.273Z,76.65
2023-01-13T22:09:06.156Z,76.37
2023-01-13T22:11:37.873Z,76.12
2023-01-13T22:14:10.423Z,75.97
2023-01-13T22:16:42.637Z,75.86
2023-01-13T22:19:15.117Z,75.74
2023-01-13T22:21:44.699Z,75.67
2023-01-13T22:24:14.091Z,75.60
2023-01-13T22:26:42.758Z,75.56
2023-01-13T22:29:11.365Z,75.55
2023-01-13T22:31:40.863Z,75.56
2023-01-13T22:34:13.058Z,75.55
2023-01-13T22:36:41.325Z,75.51
2023-01-13T22:39:09.800Z,75.36
2023-01-13T22:41:38.186Z,75.18
2023-01-13T22:44:06.888Z,75.08
2023-01-13T22:46:36.773Z,75.08
2023-01-13T22:49:07.436Z,75.10
2023-01-13T22:51:40.769Z,75.11
2023-01-13T22:54:12.458Z,75.08
2023-01-13T22:56:42.862Z,74.97
2023-01-13T22:59:16.842Z,74.94
2023-01-13T23:01:48.686Z,74.93
2023-01-13T23:04:19.330Z,74.96
2023-01-13T23:06:51.793Z,74.96
2023-01-13T23:09:22.698Z,74.99
2023-01-13T23:11:54.522Z,74.92
2023-01-13T23:14:25.044Z,74.84
2023-01-13T23:16:55.548Z,74.83
2023-01-13T23:19:25.646Z,74.79
2023-01-13T23:21:55.766Z,74.74
2023-01-13T23:24:28.687Z,74.72
2023-01-13T23:26:59.315Z,74.76
2023-01-13T23:29:28.235Z,74.84
2023-01-13T23:31:56.609Z,74.93
2023-01-13T23:34:25.604Z,74.96
2023-01-13T23:36:54.035Z,75.00
2023-01-13T23:39:22.500Z,75.10
2023-01-13T23:41:51.067Z,75.16
2023-01-13T23:44:19.577Z,75.24
2023-01-13T23:46:47.821Z,75.38
2023-01-13T23:49:16.618Z,75.52
2023-01-13T23:51:45.267Z,75.66
2023-01-13T23:54:14.103Z,75.79
2023-01-13T23:56:42.681Z,75.91
2023-01-13T23:59:11.481Z,76.01
